Time;durP1;ratioP1;P1;durP2;ratioP2;P2;SDS_P1;SDS_P2;PMS_P1;PMS_P2;Temp;Humidity;BMP_temperature;BMP_pressure;BME280_temperature;BME280_humidity;BME280_pressure;Samples;Min_cycle;Max_cycle;Signal;HPM_P1;HPM_P2
2021/12/11 00:02:04;;;;;;;19.13;11.10;;;2.30;97.30;;;;;;5036558;28;20417;-87
2021/12/11 00:04:34;;;;;;;19.73;12.37;;;2.30;97.40;;;;;;5034410;28;20475;-87
2021/12/11 00:07:03;;;;;;;16.30;11.90;;;2.30;97.50;;;;;;5028837;28;20418;-86
2021/12/11 00:09:37;;;;;;;27.00;12.43;;;2.30;97.50;;;;;;5010091;28;20418;-86
2021/12/11 00:12:15;;;;;;;22.13;12.43;;;2.30;97.50;;;;;;4992370;28;20458;-86
2021/12/11 00:14:43;;;;;;;18.50;12.57;;;2.30;97.50;;;;;;5023936;28;20452;-86
2021/12/11 00:17:11;;;;;;;59.60;26.77;;;2.30;97.50;;;;;;5005856;28;20746;-86
2021/12/11 00:19:39;;;;;;;17.57;11.23;;;2.30;97.60;;;;;;4989583;28;20421;-85
2021/12/11 00:22:15;;;;;;;23.47;12.60;;;2.30;97.60;;;;;;5022985;28;20434;-85
2021/12/11 00:24:41;;;;;;;22.67;12.10;;;2.30;97.50;;;;;;4992647;28;20943;-85
2021/12/11 00:27:24;;;;;;;30.60;12.93;;;2.20;97.50;;;;;;5007147;28;20413;-85
2021/12/11 00:29:51;;;;;;;16.33;10.50;;;2.20;97.50;;;;;;5006823;28;20467;-85
2021/12/11 00:32:31;;;;;;;19.57;12.40;;;2.20;97.60;;;;;;5014573;28;20486;-86
2021/12/11 00:35:04;;;;;;;31.47;15.07;;;2.20;97.60;;;;;;5035132;28;20463;-86
2021/12/11 00:37:30;;;;;;;21.73;12.50;;;2.20;97.60;;;;;;5030725;28;20417;-85
2021/12/11 00:40:31;;;;;;;18.17;12.80;;;2.20;97.70;;;;;;5022077;28;20444;-84
2021/12/11 00:43:04;;;;;;;20.93;11.10;;;2.30;97.80;;;;;;4959701;29;20646;-84
2021/12/11 00:45:36;;;;;;;14.90;10.80;;;2.30;97.70;;;;;;5000817;28;20442;-84
2021/12/11 00:48:06;;;;;;;23.47;10.67;;;2.30;97.70;;;;;;5022189;28;20422;-84
2021/12/11 00:50:43;;;;;;;23.63;12.57;;;2.30;97.90;;;;;;5019310;28;20483;-84
2021/12/11 00:53:25;;;;;;;30.77;14.03;;;2.40;97.70;;;;;;5000609;28;20493;-85
2021/12/11 00:56:08;;;;;;;25.63;11.77;;;2.50;97.60;;;;;;5018450;28;20472;-84
2021/12/11 00:58:36;;;;;;;29.30;12.83;;;2.60;97.50;;;;;;5017970;28;20413;-83
2021/12/11 01:01:08;;;;;;;18.07;12.20;;;2.60;97.40;;;;;;5034855;28;20398;-83
2021/12/11 01:03:36;;;;;;;32.27;13.43;;;2.70;97.30;;;;;;5034152;28;20458;-84
2021/12/11 01:06:09;;;;;;;24.73;12.70;;;2.70;97.20;;;;;;5024131;28;20513;-85
2021/12/11 01:08:41;;;;;;;19.70;11.33;;;2.80;97.20;;;;;;5018525;28;20429;-85
2021/12/11 01:11:16;;;;;;;21.00;12.90;;;2.80;97.50;;;;;;4984239;28;20418;-85
2021/12/11 01:13:53;;;;;;;24.13;11.70;;;2.90;97.10;;;;;;5000833;28;20512;-84
2021/12/11 01:16:21;;;;;;;22.73;13.20;;;2.90;96.90;;;;;;4988942;28;20406;-83
2021/12/11 01:18:50;;;;;;;28.57;12.23;;;2.90;96.80;;;;;;5035777;28;20437;-84
2021/12/11 01:21:29;;;;;;;26.30;14.63;;;2.90;96.80;;;;;;5035896;28;20429;-83
2021/12/11 01:26:36;;;;;;;20.10;12.00;;;2.90;97.00;;;;;;5036238;28;20414;-84
2021/12/11 01:29:03;;;;;;;27.73;14.33;;;2.90;96.80;;;;;;5004308;28;20445;-85
2021/12/11 01:31:29;;;;;;;26.40;16.17;;;2.90;96.80;;;;;;5015691;28;20453;-84
2021/12/11 01:33:56;;;;;;;28.70;13.97;;;2.90;96.90;;;;;;5017118;28;20450;-85
2021/12/11 01:36:22;;;;;;;24.33;14.73;;;3.00;96.80;;;;;;5015838;28;20417;-85
2021/12/11 01:38:57;;;;;;;28.53;13.70;;;2.90;96.70;;;;;;5017204;28;20402;-84
2021/12/11 01:41:23;;;;;;;28.30;16.33;;;2.90;96.70;;;;;;5017899;28;20409;-85
2021/12/11 01:43:56;;;;;;;28.53;15.70;;;2.90;96.60;;;;;;5016427;28;20426;-85
2021/12/11 01:46:25;;;;;;;34.00;16.00;;;2.90;96.60;;;;;;5017044;28;20476;-84
2021/12/11 01:48:58;;;;;;;34.63;18.20;;;2.90;96.60;;;;;;4998638;28;20414;-85
2021/12/11 01:51:42;;;;;;;33.10;17.50;;;2.80;96.50;;;;;;4998524;28;20923;-86
2021/12/11 01:54:25;;;;;;;34.20;16.63;;;2.80;96.70;;;;;;5015763;28;20722;-85
2021/12/11 01:57:01;;;;;;;39.90;17.87;;;2.70;96.70;;;;;;5013962;28;20475;-85
2021/12/11 01:59:33;;;;;;;32.97;17.20;;;2.70;96.90;;;;;;5015251;28;20409;-85
2021/12/11 02:02:11;;;;;;;37.40;19.17;;;2.60;97.10;;;;;;5011454;28;20453;-84
2021/12/11 02:04:42;;;;;;;36.50;18.27;;;2.60;97.20;;;;;;5019329;28;20437;-85
2021/12/11 02:07:13;;;;;;;39.50;20.07;;;2.70;97.40;;;;;;4999068;28;20436;-86
2021/12/11 02:09:45;;;;;;;44.53;20.97;;;2.60;97.40;;;;;;4999512;28;20926;-86
2021/12/11 02:12:19;;;;;;;33.90;18.67;;;2.60;97.50;;;;;;4997628;28;20817;-85
2021/12/11 02:14:50;;;;;;;40.27;21.40;;;2.60;97.50;;;;;;4997564;28;20444;-85
2021/12/11 02:17:28;;;;;;;38.40;21.27;;;2.70;97.70;;;;;;5015309;28;20418;-86
2021/12/11 02:19:57;;;;;;;47.77;23.10;;;2.70;97.70;;;;;;4997364;28;20493;-86
2021/12/11 02:22:37;;;;;;;40.70;23.57;;;2.70;97.80;;;;;;5015562;28;20414;-85
2021/12/11 02:25:11;;;;;;;43.10;19.97;;;2.70;97.90;;;;;;5024711;28;20480;-85
2021/12/11 02:27:50;;;;;;;41.47;21.37;;;2.70;97.90;;;;;;5029162;28;20417;-85
2021/12/11 02:30:24;;;;;;;43.60;20.97;;;2.70;98.30;;;;;;5020011;28;20421;-86
2021/12/11 02:33:20;;;;;;;48.67;23.13;;;2.70;97.90;;;;;;5016307;28;20491;-85
2021/12/11 02:36:08;;;;;;;47.70;22.10;;;2.70;98.00;;;;;;5016590;28;20912;-85
2021/12/11 02:38:59;;;;;;;49.47;20.63;;;2.70;98.00;;;;;;5003043;28;20417;-86
2021/12/11 02:41:40;;;;;;;43.20;20.97;;;2.80;98.10;;;;;;5024589;28;20514;-86
2021/12/11 02:44:51;;;;;;;43.47;21.20;;;2.80;98.20;;;;;;5025563;28;20418;-85
2021/12/11 02:47:29;;;;;;;45.13;21.83;;;2.90;98.20;;;;;;4996609;28;20524;-85
2021/12/11 02:50:03;;;;;;;44.33;21.80;;;2.90;98.10;;;;;;5015133;28;20410;-85
2021/12/11 02:52:40;;;;;;;50.93;22.97;;;2.90;98.20;;;;;;5019724;28;20492;-85
2021/12/11 02:55:21;;;;;;;42.80;22.97;;;2.90;98.50;;;;;;4999156;28;20448;-85
2021/12/11 02:57:56;;;;;;;45.53;20.47;;;2.90;98.10;;;;;;5028868;28;20398;-84
2021/12/11 03:00:33;;;;;;;49.33;22.83;;;3.00;98.20;;;;;;5020450;28;20513;-85
2021/12/11 03:03:06;;;;;;;48.93;22.00;;;3.00;98.20;;;;;;5017606;28;20429;-85
2021/12/11 03:05:47;;;;;;;40.07;19.37;;;3.00;98.20;;;;;;5001194;28;20433;-85
2021/12/11 03:08:19;;;;;;;47.10;22.43;;;3.00;98.20;;;;;;5019878;28;20647;-85
2021/12/11 03:10:56;;;;;;;37.87;19.73;;;3.00;98.20;;;;;;5020326;28;20460;-85
2021/12/11 03:13:23;;;;;;;45.47;20.63;;;3.10;98.20;;;;;;5023767;28;20503;-85
2021/12/11 03:15:50;;;;;;;44.80;22.17;;;3.10;98.10;;;;;;5023890;28;20417;-85
2021/12/11 03:18:16;;;;;;;46.43;22.03;;;3.10;98.10;;;;;;5024287;28;20439;-85
2021/12/11 03:20:44;;;;;;;48.67;23.10;;;3.10;98.10;;;;;;5006132;28;20409;-85
2021/12/11 03:23:12;;;;;;;44.20;22.93;;;3.20;98.10;;;;;;5022442;28;20457;-85
2021/12/11 03:25:39;;;;;;;40.47;21.67;;;3.20;98.00;;;;;;5023614;28;20489;-85
2021/12/11 03:28:07;;;;;;;44.43;21.80;;;3.20;97.90;;;;;;5023443;28;21014;-85
2021/12/11 03:30:37;;;;;;;51.70;23.50;;;3.20;98.00;;;;;;5023936;28;20445;-86
2021/12/11 03:33:08;;;;;;;44.97;23.87;;;3.20;97.90;;;;;;5023885;28;20465;-84
2021/12/11 03:35:35;;;;;;;49.37;23.07;;;3.20;97.90;;;;;;5034354;28;20479;-85
2021/12/11 03:38:01;;;;;;;42.97;20.97;;;3.20;97.90;;;;;;5022252;28;20402;-84
2021/12/11 03:40:28;;;;;;;43.27;20.80;;;3.20;97.80;;;;;;5019203;28;20413;-85
2021/12/11 03:42:55;;;;;;;49.83;21.17;;;3.20;97.80;;;;;;5016873;28;20410;-85
2021/12/11 03:45:31;;;;;;;48.43;21.30;;;3.20;97.80;;;;;;5017280;28;20496;-85
2021/12/11 03:48:14;;;;;;;39.50;21.03;;;3.30;97.80;;;;;;5017220;28;20410;-85
2021/12/11 03:50:41;;;;;;;41.33;21.23;;;3.30;97.70;;;;;;5017638;28;20489;-85
2021/12/11 03:53:07;;;;;;;38.83;20.60;;;3.30;97.70;;;;;;5017561;28;20478;-84
2021/12/11 03:55:38;;;;;;;42.47;21.07;;;3.30;97.70;;;;;;5018032;28;20421;-84
2021/12/11 03:58:06;;;;;;;38.10;19.70;;;3.30;97.60;;;;;;5018037;28;20398;-85
2021/12/11 04:00:43;;;;;;;36.90;19.10;;;3.30;97.50;;;;;;5019390;28;20512;-85
2021/12/11 04:03:14;;;;;;;44.00;19.40;;;3.30;97.50;;;;;;5018744;28;20461;-85
2021/12/11 04:05:42;;;;;;;38.93;19.90;;;3.30;97.50;;;;;;5001054;28;20436;-85
2021/12/11 04:08:18;;;;;;;38.37;20.03;;;3.40;97.50;;;;;;5003787;28;20418;-85
2021/12/11 04:10:44;;;;;;;37.33;21.07;;;3.40;97.50;;;;;;5032076;28;20417;-84
2021/12/11 04:13:13;;;;;;;40.60;22.80;;;3.40;97.40;;;;;;5037227;28;20488;-84
2021/12/11 04:15:41;;;;;;;38.93;20.90;;;3.40;97.40;;;;;;5036412;28;20402;-85
2021/12/11 04:18:08;;;;;;;34.40;19.77;;;3.40;97.30;;;;;;5017607;28;20701;-85
2021/12/11 04:20:37;;;;;;;42.00;20.67;;;3.40;97.20;;;;;;5006743;28;20422;-84
2021/12/11 04:23:04;;;;;;;43.07;20.33;;;3.40;97.20;;;;;;5004593;28;20402;-85
2021/12/11 04:25:30;;;;;;;42.17;21.67;;;3.40;97.20;;;;;;5029984;28;20441;-84
2021/12/11 04:27:56;;;;;;;50.20;22.17;;;3.40;97.20;;;;;;5036113;28;20414;-84
2021/12/11 04:30:24;;;;;;;44.53;21.33;;;3.50;97.20;;;;;;5035779;28;20417;-85
2021/12/11 04:32:51;;;;;;;42.23;21.53;;;3.50;97.10;;;;;;5036256;28;20453;-85
2021/12/11 04:35:18;;;;;;;38.67;20.23;;;3.50;97.00;;;;;;5032171;28;20450;-85
2021/12/11 04:37:44;;;;;;;38.50;20.63;;;3.50;97.30;;;;;;5030472;28;20438;-84
2021/12/11 04:40:36;;;;;;;37.97;19.60;;;3.50;96.90;;;;;;5020930;28;20418;-85
2021/12/11 04:43:07;;;;;;;45.80;20.40;;;3.50;96.90;;;;;;5022336;28;20506;-85
2021/12/11 04:45:48;;;;;;;35.20;19.27;;;3.50;96.90;;;;;;5032217;28;20429;-84
2021/12/11 04:48:30;;;;;;;51.63;23.97;;;3.50;97.00;;;;;;5037383;28;20470;-83
2021/12/11 04:51:24;;;;;;;47.10;22.57;;;3.50;97.00;;;;;;5037179;28;20452;-84
2021/12/11 05:04:11;;;;;;;48.30;22.13;;;3.60;96.80;;;;;;5036783;28;20438;-84
2021/12/11 05:07:01;;;;;;;44.73;21.73;;;3.60;96.90;;;;;;5036917;28;20164;-84
2021/12/11 05:09:39;;;;;;;42.43;23.47;;;3.60;96.80;;;;;;5033139;28;20409;-85
2021/12/11 05:14:51;;;;;;;48.57;21.83;;;3.60;96.80;;;;;;5056908;28;20444;-84
2021/12/11 05:17:18;;;;;;;45.30;20.30;;;3.60;96.70;;;;;;5055169;28;20416;-85
2021/12/11 05:19:46;;;;;;;46.03;21.80;;;3.60;96.70;;;;;;5056179;28;20813;-85
2021/12/11 05:22:15;;;;;;;38.90;22.90;;;3.60;96.60;;;;;;5055274;28;20425;-85
2021/12/11 05:24:44;;;;;;;48.87;21.80;;;3.60;96.60;;;;;;5036330;28;20433;-85
2021/12/11 05:27:10;;;;;;;47.53;20.80;;;3.60;96.50;;;;;;5048988;28;20443;-85
2021/12/11 05:29:36;;;;;;;41.80;22.10;;;3.60;96.60;;;;;;5039493;28;20482;-86
2021/12/11 05:32:05;;;;;;;46.30;22.90;;;3.60;96.50;;;;;;5035058;28;20726;-85
2021/12/11 05:34:32;;;;;;;52.10;23.37;;;3.60;96.50;;;;;;5035648;28;20448;-86
2021/12/11 05:36:57;;;;;;;48.20;22.50;;;3.60;96.50;;;;;;5017020;28;20413;-86
2021/12/11 05:39:23;;;;;;;49.77;23.03;;;3.60;96.50;;;;;;5036923;28;20478;-85
2021/12/11 05:41:50;;;;;;;44.63;21.77;;;3.60;96.50;;;;;;5034870;28;20413;-85
2021/12/11 05:44:18;;;;;;;53.13;22.57;;;3.60;96.50;;;;;;5048240;28;20186;-85
2021/12/11 05:46:44;;;;;;;43.83;21.47;;;3.60;96.40;;;;;;5043349;28;20792;-84
2021/12/11 05:49:11;;;;;;;44.50;21.37;;;3.60;96.40;;;;;;5001847;28;20452;-84
2021/12/11 05:51:41;;;;;;;41.13;21.90;;;3.60;96.30;;;;;;5035772;28;20453;-86
2021/12/11 05:54:12;;;;;;;41.60;23.43;;;3.60;96.40;;;;;;5036592;28;20644;-85
2021/12/11 05:56:40;;;;;;;49.70;23.17;;;3.60;96.30;;;;;;5021863;28;20477;-85
2021/12/11 05:59:09;;;;;;;44.23;22.10;;;3.60;96.30;;;;;;5018322;28;20432;-84
2021/12/11 06:01:43;;;;;;;46.93;21.30;;;3.60;96.20;;;;;;5017282;28;20428;-84
2021/12/11 06:04:13;;;;;;;45.07;22.73;;;3.60;96.20;;;;;;5035680;28;20437;-85
2021/12/11 06:06:40;;;;;;;48.07;23.67;;;3.60;96.20;;;;;;5035105;28;20416;-85
2021/12/11 06:09:08;;;;;;;56.13;23.50;;;3.60;96.10;;;;;;5016171;28;20910;-85
2021/12/11 06:11:35;;;;;;;48.07;23.60;;;3.60;96.20;;;;;;5037887;28;20809;-85
2021/12/11 06:14:02;;;;;;;46.53;23.20;;;3.60;96.20;;;;;;5036146;28;21007;-86
2021/12/11 06:16:29;;;;;;;44.27;22.43;;;3.60;96.20;;;;;;5008528;28;20424;-85
2021/12/11 06:18:54;;;;;;;46.67;23.47;;;3.60;96.20;;;;;;5029547;28;20424;-85
2021/12/11 06:21:21;;;;;;;41.30;21.83;;;3.60;96.10;;;;;;5050337;28;20783;-86
2021/12/11 06:23:47;;;;;;;47.30;23.80;;;3.60;96.00;;;;;;5004880;28;20201;-85
2021/12/11 06:26:13;;;;;;;47.20;22.77;;;3.60;96.30;;;;;;5016665;28;20409;-86
2021/12/11 06:28:39;;;;;;;49.57;21.73;;;3.60;96.30;;;;;;5016416;28;20171;-85
2021/12/11 06:31:05;;;;;;;50.83;23.03;;;3.60;96.20;;;;;;5034716;28;20492;-85
2021/12/11 06:33:33;;;;;;;48.27;22.90;;;3.60;96.30;;;;;;5017412;28;20205;-85
2021/12/11 06:36:03;;;;;;;48.57;25.93;;;3.60;96.20;;;;;;5034736;28;20646;-85
2021/12/11 06:38:31;;;;;;;48.03;22.03;;;3.60;96.20;;;;;;5022996;28;20516;-85
2021/12/11 06:40:58;;;;;;;53.07;24.30;;;3.60;96.20;;;;;;5039856;28;20441;-86
2021/12/11 06:43:24;;;;;;;46.40;21.23;;;3.60;96.20;;;;;;5013895;28;20425;-85
2021/12/11 06:45:50;;;;;;;50.80;23.37;;;3.60;96.30;;;;;;5037391;28;20879;-87
2021/12/11 06:48:17;;;;;;;51.73;21.23;;;3.60;96.20;;;;;;5022221;28;20473;-85
2021/12/11 06:50:44;;;;;;;50.90;22.80;;;3.60;96.20;;;;;;5021760;28;20429;-83
2021/12/11 06:53:19;;;;;;;51.50;21.20;;;3.60;96.20;;;;;;5026853;28;20512;-84
2021/12/11 06:55:44;;;;;;;57.07;22.77;;;3.70;96.20;;;;;;5039435;28;20501;-83
2021/12/11 06:58:10;;;;;;;51.03;23.57;;;3.70;96.20;;;;;;5029897;28;20425;-84
2021/12/11 07:00:36;;;;;;;53.20;23.50;;;3.70;96.20;;;;;;5027698;28;20182;-86
2021/12/11 07:03:02;;;;;;;47.40;23.90;;;3.70;96.10;;;;;;5034241;28;20225;-86
2021/12/11 07:05:27;;;;;;;51.87;22.40;;;3.70;96.10;;;;;;5009106;28;20191;-85
2021/12/11 07:07:53;;;;;;;53.87;24.50;;;3.70;96.00;;;;;;5021762;28;20202;-86
2021/12/11 07:10:20;;;;;;;61.43;23.10;;;3.70;96.00;;;;;;5010885;28;20174;-85
2021/12/11 07:12:48;;;;;;;55.90;23.67;;;3.70;95.90;;;;;;5040698;28;20210;-85
2021/12/11 07:15:15;;;;;;;54.17;24.77;;;3.70;96.30;;;;;;5023042;28;20444;-85
2021/12/11 07:17:41;;;;;;;50.07;23.10;;;3.70;95.90;;;;;;5008968;28;20503;-85
2021/12/11 07:20:09;;;;;;;50.17;23.80;;;3.70;95.90;;;;;;5041128;28;20452;-85
2021/12/11 07:22:39;;;;;;;55.50;23.00;;;3.80;96.30;;;;;;5022419;28;20182;-86
2021/12/11 07:25:27;;;;;;;43.67;21.67;;;3.80;95.90;;;;;;5040104;28;20429;-85
2021/12/11 07:27:56;;;;;;;53.57;25.17;;;3.80;95.90;;;;;;5040279;28;20575;-87
2021/12/11 07:30:23;;;;;;;51.13;23.90;;;3.80;96.20;;;;;;5024819;28;20440;-88
2021/12/11 07:32:55;;;;;;;52.63;21.97;;;3.80;95.80;;;;;;5025618;28;20570;-87
2021/12/11 07:35:21;;;;;;;59.27;25.53;;;3.90;95.80;;;;;;5004765;28;20461;-87
2021/12/11 07:37:50;;;;;;;51.37;22.80;;;3.90;95.70;;;;;;5004298;28;20406;-88
2021/12/11 07:40:21;;;;;;;131.93;56.63;;;3.90;95.70;;;;;;5025695;28;20467;-87
2021/12/11 07:42:47;;;;;;;56.80;26.00;;;3.90;95.60;;;;;;5008999;28;20428;-87
2021/12/11 07:45:16;;;;;;;42.70;21.30;;;4.00;95.50;;;;;;5039990;28;20444;-86
2021/12/11 07:47:42;;;;;;;53.30;20.60;;;4.00;95.50;;;;;;5010011;28;20471;-87
2021/12/11 07:50:13;;;;;;;46.80;22.50;;;4.00;95.40;;;;;;5040280;28;20431;-86
2021/12/11 07:52:44;;;;;;;49.23;24.20;;;4.00;95.30;;;;;;5022038;28;20445;-89
2021/12/11 07:55:16;;;;;;;44.90;19.97;;;4.00;95.40;;;;;;5019280;28;20438;-88
2021/12/11 07:57:45;;;;;;;45.30;19.73;;;4.00;95.40;;;;;;5008352;28;20528;-86
2021/12/11 08:00:16;;;;;;;40.10;20.90;;;4.00;95.30;;;;;;5035165;28;20468;-87
2021/12/11 08:02:47;;;;;;;45.13;21.43;;;4.00;95.40;;;;;;5029583;28;20456;-86
2021/12/11 08:06:03;;;;;;;43.63;21.47;;;4.10;95.30;;;;;;5037280;28;20464;-88
2021/12/11 08:08:54;;;;;;;42.30;20.03;;;4.10;95.20;;;;;;5004603;22;1074656;-80
2021/12/11 08:11:20;;;;;;;40.93;19.30;;;4.10;95.10;;;;;;5052829;28;20535;-79
2021/12/11 08:13:49;;;;;;;41.73;19.87;;;4.20;95.10;;;;;;5041551;28;20873;-77
2021/12/11 08:16:20;;;;;;;42.90;21.30;;;4.20;95.00;;;;;;5038829;28;20408;-79
2021/12/11 08:18:46;;;;;;;39.10;19.87;;;4.30;94.90;;;;;;5046687;28;20484;-79
2021/12/11 08:21:12;;;;;;;47.33;22.23;;;4.30;94.80;;;;;;5038769;28;20532;-80
2021/12/11 08:23:43;;;;;;;40.40;20.20;;;4.30;94.80;;;;;;5041894;28;20178;-79
2021/12/11 08:26:11;;;;;;;46.90;20.47;;;4.40;94.60;;;;;;5044791;28;20296;-80
2021/12/11 08:28:37;;;;;;;44.30;21.03;;;4.40;94.60;;;;;;5046530;28;20576;-80
2021/12/11 08:31:03;;;;;;;46.80;22.97;;;4.40;94.80;;;;;;5028883;28;20472;-79
2021/12/11 08:33:29;;;;;;;48.73;21.30;;;4.40;94.90;;;;;;5047775;28;20194;-78
2021/12/11 08:35:55;;;;;;;44.60;19.80;;;4.40;94.70;;;;;;5049768;28;20452;-79
2021/12/11 08:38:22;;;;;;;47.77;24.83;;;4.50;94.60;;;;;;5040609;28;20217;-79
2021/12/11 08:40:52;;;;;;;45.87;21.47;;;4.50;94.60;;;;;;5037276;28;20441;-79
2021/12/11 08:43:19;;;;;;;43.97;20.67;;;4.50;94.60;;;;;;5038117;28;20433;-80
2021/12/11 08:45:59;;;;;;;49.67;21.87;;;4.50;94.60;;;;;;5036839;28;20942;-78
2021/12/11 08:48:27;;;;;;;39.30;18.50;;;4.50;94.60;;;;;;5017548;28;20434;-81
2021/12/11 08:51:01;;;;;;;45.90;22.13;;;4.60;95.00;;;;;;5023715;28;20422;-80
2021/12/11 08:53:27;;;;;;;51.13;20.40;;;4.60;94.90;;;;;;5036695;28;20839;-79
2021/12/11 08:55:54;;;;;;;44.40;21.73;;;4.70;95.00;;;;;;5034449;28;20421;-80
2021/12/11 08:58:22;;;;;;;49.77;22.60;;;4.70;95.00;;;;;;5036666;28;20444;-82
2021/12/11 09:01:01;;;;;;;38.90;18.50;;;4.70;94.90;;;;;;5037160;28;20420;-79
2021/12/11 09:03:35;;;;;;;50.23;21.57;;;4.70;94.90;;;;;;5036785;28;20404;-81
2021/12/11 09:06:10;;;;;;;46.03;21.60;;;4.70;95.00;;;;;;5033116;28;20885;-78
2021/12/11 09:08:43;;;;;;;50.47;20.60;;;4.80;95.30;;;;;;5037130;28;20444;-80
2021/12/11 09:11:18;;;;;;;58.07;19.90;;;4.80;95.20;;;;;;5037190;28;20432;-78
2021/12/11 09:13:57;;;;;;;41.77;20.50;;;4.80;95.30;;;;;;5039412;28;20448;-79
2021/12/11 09:16:37;;;;;;;46.60;21.73;;;4.80;95.50;;;;;;5041306;28;20405;-80
2021/12/11 09:19:19;;;;;;;50.10;22.43;;;4.80;95.60;;;;;;5039776;28;20432;-79
2021/12/11 09:22:05;;;;;;;47.33;20.67;;;4.80;95.60;;;;;;5035543;28;20500;-80
2021/12/11 09:24:55;;;;;;;45.87;20.07;;;4.70;95.70;;;;;;5037153;28;20479;-80
2021/12/11 09:27:59;;;;;;;49.70;20.73;;;4.70;95.70;;;;;;5035577;28;20406;-80
2021/12/11 09:30:37;;;;;;;47.97;20.73;;;4.70;95.80;;;;;;5036832;28;20417;-79
2021/12/11 09:33:08;;;;;;;48.30;20.80;;;4.70;95.90;;;;;;5036075;28;20938;-79
2021/12/11 09:35:46;;;;;;;49.83;21.73;;;4.70;96.00;;;;;;5037395;28;20424;-81
2021/12/11 09:38:25;;;;;;;50.87;22.23;;;4.70;96.60;;;;;;5037621;28;20429;-80
2021/12/11 09:40:56;;;;;;;43.90;20.17;;;4.80;96.50;;;;;;5038450;28;20756;-80
2021/12/11 09:43:37;;;;;;;53.53;23.80;;;4.90;96.60;;;;;;5037402;28;20482;-81
2021/12/11 09:46:05;;;;;;;44.20;21.20;;;5.10;97.40;;;;;;5038269;28;20409;-79
2021/12/11 09:48:31;;;;;;;42.47;19.70;;;5.30;96.70;;;;;;5035362;28;20433;-80
2021/12/11 09:51:03;;;;;;;41.73;19.17;;;5.30;95.60;;;;;;5035632;28;20767;-80
2021/12/11 09:53:34;;;;;;;43.93;20.90;;;5.10;95.00;;;;;;5035505;28;20209;-80
2021/12/11 09:56:04;;;;;;;51.93;22.43;;;5.00;95.30;;;;;;5036622;28;20673;-79
2021/12/11 09:58:32;;;;;;;41.63;20.57;;;4.80;95.60;;;;;;5036913;28;20436;-80
2021/12/11 10:01:04;;;;;;;49.60;21.80;;;4.70;96.00;;;;;;5036624;28;20443;-81
2021/12/11 10:03:41;;;;;;;53.33;23.60;;;4.60;96.30;;;;;;5037237;28;20487;-80
2021/12/11 10:06:25;;;;;;;42.73;18.97;;;4.50;96.80;;;;;;5036105;28;20413;-81
2021/12/11 10:09:08;;;;;;;46.27;18.00;;;4.50;96.60;;;;;;5038003;28;20452;-79
2021/12/11 10:11:35;;;;;;;42.63;17.60;;;4.50;96.70;;;;;;5037151;28;20417;-80
2021/12/11 10:14:10;;;;;;;43.70;19.97;;;4.50;96.80;;;;;;5035514;28;20764;-80
2021/12/11 10:16:40;;;;;;;46.90;18.40;;;4.50;97.00;;;;;;5040696;28;20416;-81
2021/12/11 10:19:08;;;;;;;43.97;17.67;;;4.50;97.00;;;;;;5039535;28;20464;-79
2021/12/11 10:21:38;;;;;;;44.43;19.20;;;4.40;97.40;;;;;;5040090;28;20906;-78
2021/12/11 10:24:10;;;;;;;46.63;18.30;;;4.50;97.50;;;;;;5037179;28;20531;-80
2021/12/11 10:26:36;;;;;;;44.10;19.53;;;4.50;97.50;;;;;;5036230;28;20525;-80
2021/12/11 10:29:05;;;;;;;44.33;19.20;;;4.50;97.90;;;;;;5037605;28;20429;-82
2021/12/11 10:31:39;;;;;;;84.70;37.40;;;4.50;97.80;;;;;;5035492;28;20421;-79
2021/12/11 10:34:08;;;;;;;53.57;21.03;;;4.50;98.40;;;;;;5036859;28;20977;-80
2021/12/11 10:36:39;;;;;;;49.87;20.17;;;4.60;98.00;;;;;;5034987;28;20451;-79
2021/12/11 10:39:08;;;;;;;44.80;19.97;;;4.60;97.70;;;;;;5035007;28;20438;-81
2021/12/11 10:41:34;;;;;;;48.90;19.10;;;4.60;97.70;;;;;;5037548;28;20433;-81
2021/12/11 10:44:16;;;;;;;47.77;21.63;;;4.60;97.80;;;;;;5035926;28;20891;-79
2021/12/11 10:46:49;;;;;;;42.17;20.43;;;4.60;98.00;;;;;;5019450;28;20407;-81
2021/12/11 10:49:16;;;;;;;43.87;19.73;;;4.60;98.10;;;;;;5035300;28;20469;-80
2021/12/11 10:51:49;;;;;;;45.33;18.67;;;4.60;98.20;;;;;;5036739;28;20409;-80
2021/12/11 10:54:17;;;;;;;49.27;23.00;;;4.60;98.30;;;;;;5039739;28;20401;-79
2021/12/11 10:56:45;;;;;;;43.67;20.87;;;4.50;98.30;;;;;;5046617;28;20432;-80
2021/12/11 10:59:18;;;;;;;50.00;21.70;;;4.60;98.40;;;;;;5037910;28;20463;-79
2021/12/11 11:01:53;;;;;;;55.57;20.70;;;4.60;98.50;;;;;;5046933;28;20416;-79
2021/12/11 11:04:27;;;;;;;51.50;20.13;;;4.70;98.70;;;;;;5038773;28;20755;-81
2021/12/11 11:06:53;;;;;;;48.27;19.63;;;4.70;98.90;;;;;;5039250;28;20839;-83
2021/12/11 11:09:21;;;;;;;50.90;22.63;;;4.80;98.60;;;;;;5029843;23;20550;-72
2021/12/11 11:11:48;;;;;;;46.67;20.13;;;4.90;98.50;;;;;;5031026;28;20847;-72
2021/12/11 11:14:15;;;;;;;42.53;20.73;;;4.90;98.40;;;;;;5030090;28;20397;-71
2021/12/11 11:16:51;;;;;;;41.60;19.60;;;5.00;98.40;;;;;;5020025;28;20813;-70
2021/12/11 11:19:20;;;;;;;44.87;18.17;;;5.10;98.10;;;;;;5032297;28;20489;-71
2021/12/11 11:21:50;;;;;;;38.40;18.40;;;5.00;97.70;;;;;;5048446;28;20503;-72
2021/12/11 11:24:16;;;;;;;40.63;17.70;;;5.00;97.90;;;;;;5050640;28;20424;-71
2021/12/11 11:26:44;;;;;;;39.43;20.87;;;5.10;97.90;;;;;;5053191;28;20423;-73
2021/12/11 11:29:20;;;;;;;45.40;18.67;;;5.00;97.60;;;;;;5038893;28;20497;-74
2021/12/11 11:31:49;;;;;;;38.17;18.00;;;4.90;97.60;;;;;;5052409;28;20455;-74
2021/12/11 11:34:17;;;;;;;41.30;19.60;;;4.90;97.80;;;;;;5053967;28;20405;-73
2021/12/11 11:36:44;;;;;;;37.83;18.47;;;4.90;98.20;;;;;;5046199;28;20425;-74
2021/12/11 11:39:12;;;;;;;40.83;17.37;;;4.90;98.20;;;;;;5034201;28;20429;-71
2021/12/11 11:41:43;;;;;;;44.57;19.57;;;5.00;98.60;;;;;;5035117;28;20441;-72
2021/12/11 11:44:10;;;;;;;34.63;16.83;;;5.00;98.20;;;;;;5043352;28;20413;-73
2021/12/11 11:46:38;;;;;;;32.80;16.47;;;5.00;98.00;;;;;;5021625;28;20925;-72
2021/12/11 11:49:06;;;;;;;44.33;17.87;;;5.00;98.10;;;;;;5036999;28;20469;-72
2021/12/11 11:51:36;;;;;;;36.20;19.50;;;5.00;98.30;;;;;;5034230;28;20500;-73
2021/12/11 11:54:05;;;;;;;41.97;18.97;;;5.10;98.30;;;;;;5044138;28;20424;-74
2021/12/11 11:56:35;;;;;;;39.90;16.70;;;5.10;98.50;;;;;;5044887;28;20478;-72
2021/12/11 11:59:03;;;;;;;42.17;17.87;;;5.10;98.70;;;;;;5052826;28;21138;-76
2021/12/11 12:01:38;;;;;;;40.77;17.07;;;5.10;98.20;;;;;;5050133;28;20425;-73
2021/12/11 12:04:05;;;;;;;36.83;17.47;;;5.20;98.20;;;;;;5036625;28;20736;-72
2021/12/11 12:06:34;;;;;;;39.53;16.60;;;5.20;98.20;;;;;;5048291;28;20910;-72
2021/12/11 12:09:05;;;;;;;73.53;31.20;;;5.20;98.30;;;;;;5055372;28;20456;-72
2021/12/11 12:11:33;;;;;;;46.60;19.60;;;5.20;98.40;;;;;;5056918;28;20428;-73
2021/12/11 12:14:00;;;;;;;39.77;19.20;;;5.20;98.40;;;;;;5055462;28;20499;-72
2021/12/11 12:16:28;;;;;;;42.97;19.70;;;5.20;98.40;;;;;;5054698;28;20400;-71
2021/12/11 12:18:54;;;;;;;47.03;19.77;;;5.20;98.60;;;;;;5055629;28;20456;-74
2021/12/11 12:21:21;;;;;;;53.10;19.90;;;5.30;98.80;;;;;;5059116;28;20405;-73
2021/12/11 12:23:47;;;;;;;40.93;17.03;;;5.40;98.90;;;;;;5056362;28;20773;-74
2021/12/11 12:26:19;;;;;;;42.30;18.60;;;5.50;99.10;;;;;;5020292;28;20420;-72
2021/12/11 12:28:45;;;;;;;40.53;19.10;;;5.60;98.90;;;;;;5060143;28;20447;-71
2021/12/11 12:31:32;;;;;;;38.83;17.33;;;5.70;98.80;;;;;;5054341;28;20407;-73
2021/12/11 12:33:59;;;;;;;30.23;17.00;;;5.70;98.60;;;;;;5054257;28;20408;-74
2021/12/11 12:36:25;;;;;;;26.00;13.47;;;5.70;98.60;;;;;;5053731;28;20415;-71
2021/12/11 12:38:52;;;;;;;34.27;14.37;;;5.80;98.80;;;;;;5053012;28;20956;-71
2021/12/11 12:41:28;;;;;;;25.37;14.57;;;5.80;98.70;;;;;;5053957;28;20793;-72
2021/12/11 12:47:13;;;;;;;24.00;11.73;;;6.10;99.90;;;;;;5048702;28;20409;-73
2021/12/11 12:49:45;;;;;;;14.00;9.37;;;6.20;99.00;;;;;;4978536;28;20451;-74
2021/12/11 12:52:22;;;;;;;20.33;8.63;;;6.30;98.70;;;;;;5061774;28;20452;-73
2021/12/11 12:54:49;;;;;;;57.90;27.07;;;6.30;98.50;;;;;;5053354;28;20773;-74
2021/12/11 12:57:26;;;;;;;18.17;8.63;;;6.30;98.10;;;;;;5053119;28;20407;-72
2021/12/11 13:00:26;;;;;;;17.20;10.17;;;6.30;98.10;;;;;;5034638;28;20427;-72
2021/12/11 13:02:56;;;;;;;24.73;9.10;;;6.30;98.10;;;;;;5020729;28;20830;-72
2021/12/11 13:05:41;;;;;;;23.10;7.27;;;6.30;99.20;;;;;;5056806;28;20412;-74
2021/12/11 13:08:19;;;;;;;12.40;6.67;;;6.40;98.00;;;;;;5066096;28;20916;-73
2021/12/11 13:10:50;;;;;;;18.83;7.73;;;6.40;97.90;;;;;;5058799;28;20932;-73
2021/12/11 13:13:18;;;;;;;19.77;8.37;;;6.50;98.50;;;;;;5043423;28;20456;-72
2021/12/11 13:15:55;;;;;;;18.27;8.00;;;6.60;97.70;;;;;;5054189;28;20917;-71
2021/12/11 13:18:26;;;;;;;18.27;7.93;;;6.60;97.30;;;;;;5052953;28;20435;-73
2021/12/11 13:21:02;;;;;;;9.03;6.67;;;6.60;97.80;;;;;;5053035;28;20929;-74